Tula, Russia
Current Conditions -  °F | °C
As of 5:00 PM on Wednesday 22 Oct 2014 (Local Time) from UUDD Reporting Station
Broken Clouds Broken Clouds  
Wind Chill: 11°   Ceiling: 2300
Heat Index: 23°   Visibility: 6mi
Dew Point: 16°   Wind: 13mph
Humidity: 74%   Direction: 340°NNW
Pressure: 29.97"   Gusts: NA
Location:  54.2°N, 37.61°E
Report Text: UUDD 221400Z 34006MPS 9999 BKN023 M05/M09 Q1015 3219009582290095 NOSIG
Loading
Personal Weather Stations






























Interactive Weather Map
Tropical Storm Tracking
New forecast layout! Learn more

10-Day Weather Forecast

Advertisements
Track Severe Weather on mobile